Time;durP1;ratioP1;P1;durP2;ratioP2;P2;SDS_P1;SDS_P2;PMS_P1;PMS_P2;Temp;Humidity;BMP_temperature;BMP_pressure;BME280_temperature;BME280_humidity;BME280_pressure;Samples;Min_cycle;Max_cycle;Signal;HPM_P1;HPM_P2
2022/08/25 00:00:09;;;;;;;9.10;8.38;;;18.00;99.90;;;;;;4987515;28;20543;-77
2022/08/25 00:02:38;;;;;;;9.10;8.30;;;18.00;99.90;;;;;;4981041;28;20710;-77
2022/08/25 00:05:09;;;;;;;8.23;7.63;;;18.00;99.90;;;;;;4988235;28;20404;-77
2022/08/25 00:07:35;;;;;;;8.73;8.02;;;17.90;99.90;;;;;;4997713;28;20111;-77
2022/08/25 00:10:10;;;;;;;8.82;8.13;;;17.90;99.90;;;;;;4994372;28;20049;-77
2022/08/25 00:12:36;;;;;;;8.80;8.10;;;17.90;99.90;;;;;;4973472;28;20050;-77
2022/08/25 00:15:04;;;;;;;8.95;8.23;;;17.80;99.90;;;;;;4989663;28;20037;-77
2022/08/25 00:17:32;;;;;;;9.45;8.65;;;17.80;99.90;;;;;;4983640;28;20049;-77
2022/08/25 00:19:58;;;;;;;9.23;8.50;;;17.80;99.90;;;;;;4999707;28;20508;-77
2022/08/25 00:22:28;;;;;;;9.63;8.82;;;17.70;99.90;;;;;;4960416;28;20216;-78
2022/08/25 00:24:59;;;;;;;9.15;8.35;;;17.70;99.90;;;;;;4990094;28;20087;-77
2022/08/25 00:27:28;;;;;;;9.63;8.82;;;17.70;99.90;;;;;;4988346;28;20124;-77
2022/08/25 00:30:13;;;;;;;8.65;7.95;;;17.70;99.90;;;;;;4976825;28;20517;-77
2022/08/25 00:32:39;;;;;;;8.52;7.82;;;17.70;99.90;;;;;;4978550;28;20389;-77
2022/08/25 00:35:06;;;;;;;7.35;6.75;;;17.80;99.90;;;;;;4983850;28;20063;-77
2022/08/25 00:37:41;;;;;;;7.53;6.93;;;17.90;99.90;;;;;;5007445;28;20037;-77
2022/08/25 00:40:10;;;;;;;7.43;6.75;;;18.10;99.90;;;;;;4989351;28;20096;-77
2022/08/25 00:42:50;;;;;;;;;;;;;;;;;;;;;
2022/08/25 00:45:19;;;;;;;6.15;5.55;;;18.50;99.90;;;;;;4996962;28;20045;-77
2022/08/25 00:47:51;;;;;;;5.63;5.13;;;18.60;99.90;;;;;;5003667;28;20030;-77
2022/08/25 00:50:21;;;;;;;5.40;4.90;;;18.80;99.90;;;;;;4981418;28;20060;-78
2022/08/25 00:53:01;;;;;;;5.70;5.20;;;18.80;99.90;;;;;;4996063;28;20037;-77
2022/08/25 00:55:33;;;;;;;5.30;4.80;;;19.00;99.90;;;;;;4984497;28;20127;-77
2022/08/25 00:58:30;;;;;;;5.20;4.78;;;19.10;99.90;;;;;;5014047;28;20490;-77
2022/08/25 01:01:09;;;;;;;4.95;4.55;;;19.20;99.90;;;;;;4972038;28;20064;-78
2022/08/25 01:03:42;;;;;;;5.25;4.55;;;19.20;99.90;;;;;;4980550;28;20037;-77
2022/08/25 01:06:17;;;;;;;4.78;4.38;;;19.10;99.90;;;;;;4981379;28;20048;-77
2022/08/25 01:08:44;;;;;;;5.10;4.70;;;19.20;99.90;;;;;;4997078;28;20116;-77
2022/08/25 01:11:13;;;;;;;4.57;4.13;;;19.20;99.90;;;;;;4979458;28;20049;-78
2022/08/25 01:13:55;;;;;;;4.22;3.60;;;19.30;99.90;;;;;;4998162;28;20513;-78
2022/08/25 01:16:26;;;;;;;4.50;3.83;;;19.20;99.90;;;;;;4984261;28;20125;-77
2022/08/25 01:18:59;;;;;;;3.83;3.53;;;19.20;99.90;;;;;;4973330;28;20041;-77
2022/08/25 01:21:29;;;;;;;4.28;3.88;;;19.30;99.90;;;;;;4994873;28;20350;-77
2022/08/25 01:24:02;;;;;;;3.90;3.30;;;19.40;99.90;;;;;;4996105;28;20511;-77
2022/08/25 01:26:34;;;;;;;3.95;3.30;;;19.50;99.90;;;;;;4982252;28;20045;-77
2022/08/25 01:29:20;;;;;;;4.47;3.35;;;19.60;99.90;;;;;;4971777;28;20173;-77
2022/08/25 01:31:56;;;;;;;4.28;3.55;;;19.50;99.90;;;;;;4988313;28;20046;-77
2022/08/25 01:34:31;;;;;;;3.95;3.22;;;19.50;99.90;;;;;;4987030;28;20469;-77
2022/08/25 01:37:00;;;;;;;4.20;3.80;;;19.40;99.90;;;;;;4959034;28;20034;-77
2022/08/25 01:39:36;;;;;;;5.30;3.88;;;19.30;99.90;;;;;;4979271;28;20239;-77
2022/08/25 01:42:40;;;;;;;3.92;3.60;;;19.20;99.90;;;;;;4980396;28;20506;-77
2022/08/25 01:45:12;;;;;;;4.10;3.58;;;19.10;99.90;;;;;;4979435;28;20378;-77
2022/08/25 01:47:40;;;;;;;3.53;3.20;;;18.90;99.90;;;;;;4989346;28;20088;-79
2022/08/25 01:50:09;;;;;;;4.38;3.90;;;18.80;99.90;;;;;;4995914;28;20041;-79
2022/08/25 01:52:55;;;;;;;4.03;3.63;;;18.70;99.90;;;;;;4986318;28;20399;-79
2022/08/25 01:55:22;;;;;;;4.00;3.60;;;18.70;99.90;;;;;;4978854;28;20034;-79
2022/08/25 01:57:48;;;;;;;4.18;3.78;;;18.60;99.90;;;;;;4972609;28;20042;-77
2022/08/25 02:00:25;;;;;;;3.60;3.30;;;18.60;99.90;;;;;;4969659;28;20077;-77
2022/08/25 02:02:52;;;;;;;3.90;3.50;;;18.50;99.90;;;;;;4986537;28;20042;-77
2022/08/25 02:05:22;;;;;;;3.88;3.42;;;18.50;99.90;;;;;;4985129;28;20539;-77
2022/08/25 02:07:53;;;;;;;4.40;4.07;;;18.40;99.90;;;;;;4998013;28;20033;-77
2022/08/25 02:10:22;;;;;;;3.90;3.50;;;18.40;99.90;;;;;;4994383;28;20082;-78
2022/08/25 02:12:51;;;;;;;3.85;3.50;;;18.40;99.90;;;;;;4986647;28;20038;-77
2022/08/25 02:15:20;;;;;;;3.53;3.20;;;18.40;99.90;;;;;;4960109;28;20057;-77
2022/08/25 02:17:46;;;;;;;4.32;3.85;;;18.40;99.90;;;;;;4978388;28;20052;-77
2022/08/25 02:20:15;;;;;;;5.63;4.03;;;18.40;99.90;;;;;;4978651;28;20050;-77
2022/08/25 02:22:41;;;;;;;4.82;3.35;;;18.40;99.90;;;;;;4962203;28;20069;-77
2022/08/25 02:25:07;;;;;;;4.00;3.58;;;18.50;99.90;;;;;;4969035;28;20047;-77
2022/08/25 02:27:34;;;;;;;4.22;3.67;;;18.50;99.90;;;;;;4958956;28;20482;-77
2022/08/25 02:30:00;;;;;;;4.28;3.88;;;18.60;99.90;;;;;;4959259;28;20053;-77
2022/08/25 02:32:26;;;;;;;3.50;3.20;;;18.60;99.90;;;;;;4977855;28;20510;-77
2022/08/25 02:34:58;;;;;;;4.35;3.95;;;18.50;99.90;;;;;;4977454;28;20053;-77
2022/08/25 02:37:29;;;;;;;4.22;3.78;;;18.40;99.90;;;;;;4978610;28;20041;-77
2022/08/25 02:39:58;;;;;;;3.35;3.05;;;18.30;99.90;;;;;;4979187;28;20139;-78
2022/08/25 02:42:30;;;;;;;4.63;4.00;;;18.20;99.90;;;;;;4978338;28;20077;-78
2022/08/25 02:44:59;;;;;;;4.10;3.70;;;18.10;99.90;;;;;;4967035;28;20045;-77
2022/08/25 02:47:25;;;;;;;3.92;3.53;;;18.10;99.90;;;;;;5010562;28;20040;-77
2022/08/25 02:49:51;;;;;;;4.07;3.47;;;18.00;99.90;;;;;;5011003;28;20069;-77
2022/08/25 02:52:20;;;;;;;5.18;3.80;;;17.90;99.90;;;;;;4986363;28;20117;-78
2022/08/25 02:54:46;;;;;;;4.32;3.72;;;17.80;99.90;;;;;;5009758;28;20038;-77
2022/08/25 02:57:24;;;;;;;4.20;3.80;;;17.70;99.90;;;;;;4979662;28;20042;-77
2022/08/25 02:59:53;;;;;;;3.88;3.40;;;17.60;99.90;;;;;;4978705;28;20046;-78
2022/08/25 03:02:19;;;;;;;4.15;3.75;;;17.50;99.90;;;;;;4977623;28;20065;-77
2022/08/25 03:04:46;;;;;;;3.88;3.58;;;17.50;99.90;;;;;;4996622;28;20120;-77
2022/08/25 03:07:12;;;;;;;4.15;3.75;;;17.60;99.90;;;;;;5001615;28;20474;-77
2022/08/25 03:09:44;;;;;;;4.22;3.70;;;17.60;99.90;;;;;;5001728;28;20052;-77
2022/08/25 03:12:19;;;;;;;3.65;3.33;;;17.60;99.90;;;;;;4986126;28;20041;-77
2022/08/25 03:14:50;;;;;;;3.95;3.55;;;17.60;99.90;;;;;;4996519;28;20563;-79
2022/08/25 03:17:19;;;;;;;4.28;3.88;;;17.50;99.90;;;;;;4981416;28;20050;-77
2022/08/25 03:19:45;;;;;;;3.17;2.78;;;17.50;99.90;;;;;;4982768;28;20481;-77
2022/08/25 03:22:20;;;;;;;4.05;3.65;;;17.40;99.90;;;;;;4981953;28;20132;-77
2022/08/25 03:24:46;;;;;;;4.13;3.65;;;17.40;99.90;;;;;;4978213;28;20034;-77
2022/08/25 03:27:12;;;;;;;3.88;3.20;;;17.40;99.90;;;;;;4992721;28;20048;-77
2022/08/25 03:29:41;;;;;;;3.78;3.42;;;17.40;99.90;;;;;;4973581;28;20095;-77
2022/08/25 03:32:08;;;;;;;4.30;3.90;;;17.50;99.90;;;;;;4981347;28;20500;-77
2022/08/25 03:34:42;;;;;;;3.67;2.95;;;17.40;99.90;;;;;;4981538;28;20034;-80
2022/08/25 03:37:14;;;;;;;4.13;3.47;;;17.50;99.90;;;;;;4981568;28;20128;-79
2022/08/25 03:39:43;;;;;;;3.85;3.30;;;17.60;99.90;;;;;;4981899;28;20092;-79
2022/08/25 03:42:12;;;;;;;3.67;3.35;;;17.70;99.90;;;;;;4987111;28;20041;-79
2022/08/25 03:44:43;;;;;;;4.10;3.28;;;17.80;99.90;;;;;;4980015;28;20042;-79
2022/08/25 03:47:09;;;;;;;4.32;3.35;;;17.80;99.90;;;;;;4962304;28;20426;-78
2022/08/25 03:49:41;;;;;;;3.50;3.20;;;17.80;99.90;;;;;;4960632;28;20104;-77
2022/08/25 03:52:07;;;;;;;3.72;3.42;;;17.90;99.90;;;;;;4972277;28;20042;-77
2022/08/25 03:54:35;;;;;;;3.65;3.35;;;17.80;99.90;;;;;;4988419;28;20152;-77
2022/08/25 03:57:02;;;;;;;3.58;3.22;;;17.70;99.90;;;;;;4961770;28;20405;-77
2022/08/25 03:59:31;;;;;;;4.20;3.80;;;17.70;99.90;;;;;;4962241;28;20043;-78
2022/08/25 04:02:00;;;;;;;4.05;3.50;;;17.70;99.90;;;;;;4973431;28;20042;-77
2022/08/25 04:04:26;;;;;;;3.65;3.30;;;17.60;99.90;;;;;;4996708;28;20049;-78
2022/08/25 04:06:55;;;;;;;3.92;3.50;;;17.70;99.90;;;;;;4992580;28;20044;-79
2022/08/25 04:09:24;;;;;;;3.63;3.33;;;17.60;99.90;;;;;;4972888;28;20069;-77
2022/08/25 04:11:51;;;;;;;3.90;3.50;;;17.60;99.90;;;;;;4999799;28;20068;-77
2022/08/25 04:14:23;;;;;;;4.10;3.80;;;17.50;99.90;;;;;;4992280;28;20493;-77
2022/08/25 04:16:54;;;;;;;4.10;3.70;;;17.40;99.90;;;;;;4980745;28;20072;-77
2022/08/25 04:19:26;;;;;;;4.57;4.05;;;17.40;99.90;;;;;;4997633;28;20038;-77
2022/08/25 04:21:55;;;;;;;4.78;4.38;;;17.20;99.90;;;;;;4980620;28;20041;-77
2022/08/25 04:24:21;;;;;;;3.88;3.58;;;17.20;99.90;;;;;;4981080;28;20514;-77
2022/08/25 04:26:49;;;;;;;4.20;3.80;;;17.20;99.90;;;;;;4980795;28;20128;-77
2022/08/25 04:29:18;;;;;;;4.38;3.97;;;17.10;99.90;;;;;;4979783;28;20053;-77
2022/08/25 04:31:46;;;;;;;4.93;4.22;;;17.10;99.90;;;;;;4980202;28;20045;-77
2022/08/25 04:34:13;;;;;;;4.63;4.22;;;17.00;99.90;;;;;;4996078;28;20119;-78
2022/08/25 04:36:40;;;;;;;4.18;3.75;;;17.00;99.90;;;;;;4980038;28;20068;-78
2022/08/25 04:39:08;;;;;;;3.85;3.40;;;16.90;99.90;;;;;;4979560;28;20050;-77
2022/08/25 04:41:34;;;;;;;4.28;3.90;;;17.00;99.90;;;;;;4980340;28;20433;-77
2022/08/25 04:44:03;;;;;;;4.45;4.05;;;17.20;99.90;;;;;;4980415;28;20132;-77
2022/08/25 04:46:31;;;;;;;4.20;3.80;;;17.20;99.90;;;;;;4979729;28;20042;-80
2022/08/25 04:49:02;;;;;;;4.45;4.05;;;17.30;99.90;;;;;;4960244;28;20038;-77
2022/08/25 04:51:35;;;;;;;4.50;3.72;;;17.20;99.90;;;;;;4964309;28;20388;-77
2022/08/25 04:54:04;;;;;;;4.38;3.97;;;17.20;99.90;;;;;;4980160;28;20037;-77
2022/08/25 04:56:32;;;;;;;4.20;3.80;;;17.10;99.90;;;;;;4987655;28;20120;-77
2022/08/25 04:59:05;;;;;;;4.00;3.60;;;17.10;99.90;;;;;;4984459;28;20516;-77
2022/08/25 05:01:42;;;;;;;4.22;3.83;;;17.00;99.90;;;;;;4967575;28;20046;-80
2022/08/25 05:04:13;;;;;;;4.55;4.15;;;17.10;99.90;;;;;;4994165;28;20382;-78
2022/08/25 05:06:40;;;;;;;4.20;3.80;;;17.10;99.90;;;;;;4986773;28;20091;-77
2022/08/25 05:09:07;;;;;;;4.85;4.13;;;17.10;99.90;;;;;;4984128;28;20087;-77
2022/08/25 05:11:33;;;;;;;5.28;4.30;;;17.10;99.90;;;;;;4999223;28;20517;-77
2022/08/25 05:14:04;;;;;;;4.43;4.03;;;17.00;99.90;;;;;;5014609;28;20065;-77
2022/08/25 05:16:33;;;;;;;4.50;4.10;;;17.00;99.90;;;;;;4979636;28;20121;-78
2022/08/25 05:19:06;;;;;;;3.73;3.43;;;17.00;99.90;;;;;;4984253;28;20400;-78
2022/08/25 05:21:33;;;;;;;4.72;3.58;;;17.20;99.90;;;;;;4989731;28;20038;-77
2022/08/25 05:24:03;;;;;;;4.65;3.65;;;17.30;99.90;;;;;;4998907;28;20497;-77
2022/08/25 05:26:35;;;;;;;4.28;3.17;;;17.50;99.90;;;;;;4976172;28;20042;-77
2022/08/25 05:29:04;;;;;;;3.70;3.40;;;17.70;99.90;;;;;;4983934;28;20508;-77
2022/08/25 05:31:31;;;;;;;3.83;3.42;;;17.90;99.90;;;;;;5006502;28;20050;-78
2022/08/25 05:33:58;;;;;;;4.00;3.55;;;18.00;99.90;;;;;;4981049;28;20096;-78
2022/08/25 05:36:26;;;;;;;3.85;3.50;;;18.10;99.90;;;;;;4960247;28;20433;-77
2022/08/25 05:38:52;;;;;;;3.78;3.40;;;18.20;99.90;;;;;;4976837;28;20056;-77
2022/08/25 05:41:27;;;;;;;4.97;4.00;;;18.30;99.90;;;;;;4975994;28;20486;-77
2022/08/25 05:43:53;;;;;;;4.28;3.83;;;18.40;99.90;;;;;;4975514;28;20414;-80
2022/08/25 05:46:21;;;;;;;3.63;3.30;;;18.50;99.90;;;;;;4969979;28;20117;-78
2022/08/25 05:49:12;;;;;;;4.07;3.65;;;18.50;99.90;;;;;;4998348;28;20455;-78
2022/08/25 05:51:39;;;;;;;4.85;3.20;;;18.60;99.90;;;;;;4995673;28;20080;-77
2022/08/25 05:54:09;;;;;;;5.15;3.47;;;18.70;99.90;;;;;;4994917;28;20053;-78
2022/08/25 05:56:41;;;;;;;4.00;3.33;;;18.70;99.90;;;;;;5002270;28;20137;-77
2022/08/25 05:59:10;;;;;;;4.63;3.42;;;18.70;99.90;;;;;;4989052;28;20045;-79
2022/08/25 06:04:21;;;;;;;3.42;3.13;;;18.80;99.90;;;;;;5004663;28;20124;-76
2022/08/25 06:06:54;;;;;;;4.38;3.25;;;18.80;99.90;;;;;;4995540;28;20038;-78
2022/08/25 06:09:27;;;;;;;3.75;3.35;;;18.80;99.90;;;;;;4991022;28;20050;-78
2022/08/25 06:11:54;;;;;;;4.00;3.60;;;18.80;99.90;;;;;;4989350;28;20453;-79
2022/08/25 06:14:20;;;;;;;4.00;3.63;;;18.90;99.90;;;;;;4997991;28;20051;-79
2022/08/25 06:16:56;;;;;;;4.75;3.42;;;19.00;99.90;;;;;;5014415;28;20552;-78
2022/08/25 06:19:46;;;;;;;4.03;3.20;;;19.00;99.90;;;;;;5009305;28;20040;-78
2022/08/25 06:22:44;;;;;;;5.40;3.30;;;19.20;99.90;;;;;;4976182;28;20475;-79
2022/08/25 06:25:20;;;;;;;3.78;3.47;;;19.30;99.90;;;;;;4974690;28;20134;-78
2022/08/25 06:27:53;;;;;;;4.03;3.50;;;19.40;99.90;;;;;;4957780;28;20050;-78
2022/08/25 06:30:28;;;;;;;4.50;3.88;;;19.50;99.90;;;;;;4999934;28;20052;-78
2022/08/25 06:33:06;;;;;;;3.90;3.50;;;19.70;99.90;;;;;;4969806;28;20053;-80
2022/08/25 06:36:00;;;;;;;4.45;4.05;;;19.80;99.90;;;;;;4994585;28;20453;-78
2022/08/25 06:38:48;;;;;;;3.75;3.45;;;19.90;99.90;;;;;;4999702;28;20401;-78
2022/08/25 06:42:20;;;;;;;3.65;3.35;;;20.10;99.90;;;;;;4982451;28;20158;-78
2022/08/25 06:45:13;;;;;;;4.43;3.42;;;20.20;99.90;;;;;;4993153;28;20140;-80
2022/08/25 06:47:59;;;;;;;3.53;3.10;;;20.30;99.90;;;;;;4998872;28;20088;-78
2022/08/25 06:50:30;;;;;;;3.67;3.38;;;20.50;99.90;;;;;;5014524;28;20079;-78
2022/08/25 06:53:08;;;;;;;4.72;3.20;;;20.50;99.90;;;;;;4977275;28;20046;-78
2022/08/25 06:56:00;;;;;;;3.70;3.38;;;20.70;99.90;;;;;;4975007;28;20034;-78
2022/08/25 06:58:39;;;;;;;3.60;3.30;;;20.80;99.90;;;;;;4961377;28;20046;-78
2022/08/25 07:01:52;;;;;;;3.08;2.78;;;20.90;99.90;;;;;;4982195;28;20137;-78
2022/08/25 08:01:51;;;;;;;;;;;;;;;;;;;;;
2022/08/25 08:09:44;;;;;;;3.13;2.72;;;23.20;94.70;;;;;;4955716;28;20062;-78
2022/08/25 08:13:25;;;;;;;;;;;;;;;;;;;;;
2022/08/25 08:27:37;;;;;;;;;;;;;;;;;;;;;
2022/08/25 08:38:52;;;;;;;2.55;2.20;;;26.00;89.20;;;;;;4891657;29;20346;-79
2022/08/25 08:45:55;;;;;;;2.38;2.08;;;28.00;79.40;;;;;;4941607;28;20047;-78
2022/08/25 08:52:26;;;;;;;3.40;1.95;;;29.30;72.50;;;;;;4983539;28;20045;-79
2022/08/25 08:55:45;;;;;;;2.03;1.52;;;29.70;73.00;;;;;;4956570;28;20046;-79
2022/08/25 08:59:17;;;;;;;2.20;1.77;;;29.90;69.40;;;;;;4996675;28;20050;-79
2022/08/25 09:02:11;;;;;;;2.28;1.83;;;30.30;68.20;;;;;;4969865;28;20189;-78
2022/08/25 09:05:07;;;;;;;;;;;;;;;;;;;;;
2022/08/25 09:08:38;;;;;;;1.83;1.42;;;30.80;61.40;;;;;;5016181;28;20048;-80
2022/08/25 09:12:09;;;;;;;1.80;1.60;;;31.00;63.50;;;;;;4945402;28;20050;-77
2022/08/25 09:18:35;;;;;;;1.58;1.42;;;31.10;58.20;;;;;;4977414;28;20042;-77
2022/08/25 09:22:10;;;;;;;;;;;;;;;;;;;;;
2022/08/25 09:25:29;;;;;;;1.70;1.48;;;31.30;58.50;;;;;;4935717;29;20051;-77
2022/08/25 09:29:04;;;;;;;2.15;1.58;;;31.60;56.00;;;;;;4898647;28;20061;-78
2022/08/25 09:32:18;;;;;;;3.05;2.17;;;31.90;56.10;;;;;;4888389;29;20173;-78
2022/08/25 09:35:41;;;;;;;;;;;;;;;;;;;;;
2022/08/25 09:38:34;;;;;;;2.08;1.50;;;32.20;53.90;;;;;;4940184;29;20039;-78
2022/08/25 09:42:09;;;;;;;1.80;1.52;;;32.20;54.60;;;;;;4939928;29;20103;-78
2022/08/25 09:45:43;;;;;;;1.67;1.50;;;32.70;55.20;;;;;;4927176;29;20104;-79
2022/08/25 09:49:09;;;;;;;;;;;;;;;;;;;;;
2022/08/25 09:56:05;;;;;;;1.35;1.25;;;33.20;51.50;;;;;;4939554;28;20050;-78
2022/08/25 09:59:00;;;;;;;1.95;1.55;;;33.20;51.10;;;;;;4972177;28;20041;-79
2022/08/25 10:02:39;;;;;;;1.55;1.30;;;33.30;50.60;;;;;;4941584;28;20423;-79
2022/08/25 10:06:18;;;;;;;;;;;;;;;;;;;;;
2022/08/25 10:09:14;;;;;;;1.83;1.45;;;33.40;48.50;;;;;;4903694;28;20053;-80
2022/08/25 10:11:47;;;;;;;1.58;1.30;;;33.60;49.00;;;;;;4975027;28;20125;-77
2022/08/25 10:14:48;;;;;;;1.40;1.30;;;33.90;50.80;;;;;;4968836;28;20558;-77
2022/08/25 10:17:24;;;;;;;1.50;1.40;;;34.10;50.80;;;;;;4963827;28;20089;-78
2022/08/25 10:20:15;;;;;;;1.35;1.25;;;34.40;49.50;;;;;;4966997;28;20053;-78
2022/08/25 10:22:46;;;;;;;2.42;1.50;;;34.30;48.80;;;;;;4972102;28;20097;-78
2022/08/25 10:25:15;;;;;;;1.63;1.30;;;34.30;47.90;;;;;;4973730;28;20042;-79
2022/08/25 10:27:57;;;;;;;4.32;1.40;;;34.20;46.40;;;;;;4969139;28;20046;-78
2022/08/25 10:31:04;;;;;;;2.40;1.42;;;34.20;45.20;;;;;;4971826;28;20061;-78
2022/08/25 10:33:50;;;;;;;3.80;1.30;;;34.30;43.80;;;;;;4925812;29;20054;-78
2022/08/25 10:36:33;;;;;;;2.25;1.20;;;34.20;44.70;;;;;;4929505;29;20047;-78
2022/08/25 10:39:01;;;;;;;1.30;1.20;;;34.10;43.50;;;;;;4981296;28;20133;-78
2022/08/25 10:42:10;;;;;;;2.28;1.25;;;34.20;45.60;;;;;;4963682;28;20189;-78
2022/08/25 10:48:18;;;;;;;1.30;1.20;;;34.60;45.20;;;;;;4976833;28;20517;-78
2022/08/25 10:51:03;;;;;;;1.33;1.08;;;34.90;44.90;;;;;;4958784;28;20038;-78
2022/08/25 10:54:07;;;;;;;1.58;1.25;;;35.00;45.10;;;;;;4972615;28;20387;-75
2022/08/25 10:56:48;;;;;;;1.38;1.27;;;35.00;43.30;;;;;;4960469;28;20131;-78
2022/08/25 10:59:53;;;;;;;2.10;1.40;;;35.10;43.10;;;;;;4959946;28;20035;-79
2022/08/25 11:02:32;;;;;;;1.60;1.20;;;35.30;40.90;;;;;;4962032;28;20215;-77
2022/08/25 11:05:32;;;;;;;1.25;1.02;;;35.00;42.40;;;;;;4974495;28;20056;-78
2022/08/25 11:08:24;;;;;;;1.52;1.05;;;35.00;43.70;;;;;;4965559;28;20545;-78
2022/08/25 11:11:01;;;;;;;2.13;1.20;;;35.20;42.70;;;;;;4961879;28;20038;-78
2022/08/25 11:13:33;;;;;;;1.45;1.10;;;35.30;43.50;;;;;;4972833;28;20528;-78
2022/08/25 11:16:10;;;;;;;1.17;0.98;;;35.50;44.00;;;;;;4979964;28;20525;-78
2022/08/25 11:18:54;;;;;;;1.73;1.23;;;35.60;43.20;;;;;;4986075;28;20129;-79
2022/08/25 11:21:46;;;;;;;1.77;1.30;;;35.70;42.70;;;;;;4967862;28;20403;-79
2022/08/25 11:24:49;;;;;;;3.27;0.97;;;35.70;41.20;;;;;;4963722;28;20039;-78
2022/08/25 11:27:21;;;;;;;1.63;1.10;;;35.50;41.30;;;;;;4964191;28;20353;-78
2022/08/25 11:30:13;;;;;;;1.20;1.10;;;35.50;42.00;;;;;;4969947;28;20422;-78
2022/08/25 11:32:51;;;;;;;1.77;1.33;;;35.50;40.70;;;;;;4975122;28;20065;-79
2022/08/25 11:35:58;;;;;;;1.48;1.20;;;35.60;41.30;;;;;;4961071;28;20042;-78
2022/08/25 11:39:12;;;;;;;1.38;0.90;;;35.80;41.80;;;;;;4960051;28;20046;-78
2022/08/25 11:42:17;;;;;;;1.67;0.98;;;35.80;40.00;;;;;;4954106;28;20137;-79
2022/08/25 11:45:21;;;;;;;1.10;1.00;;;35.90;39.70;;;;;;4971351;28;20030;-78
2022/08/25 11:48:15;;;;;;;1.27;0.80;;;35.90;38.80;;;;;;4967441;28;20502;-78
2022/08/25 11:51:10;;;;;;;3.33;1.02;;;35.90;39.80;;;;;;4977174;28;20054;-77
2022/08/25 11:53:45;;;;;;;2.58;0.88;;;35.90;37.40;;;;;;4971529;28;20046;-77
2022/08/25 11:56:30;;;;;;;1.15;1.05;;;35.70;38.30;;;;;;4967910;28;20057;-77
2022/08/25 11:59:01;;;;;;;1.52;0.98;;;35.50;39.30;;;;;;4980723;28;20042;-77
2022/08/25 12:01:45;;;;;;;1.05;0.90;;;35.40;39.00;;;;;;4960058;28;20112;-78
2022/08/25 12:04:42;;;;;;;1.30;1.10;;;35.50;37.90;;;;;;4968129;28;20125;-77
2022/08/25 12:07:18;;;;;;;1.27;1.17;;;35.70;37.30;;;;;;4970267;28;20074;-76
2022/08/25 12:09:50;;;;;;;1.55;1.00;;;36.00;37.30;;;;;;4955241;28;20101;-78
2022/08/25 12:13:03;;;;;;;1.55;1.00;;;36.10;37.30;;;;;;4972221;28;20539;-78
2022/08/25 12:15:46;;;;;;;1.10;0.90;;;36.10;36.60;;;;;;4931642;28;20069;-77
2022/08/25 12:18:24;;;;;;;1.50;0.80;;;36.20;36.40;;;;;;4962550;28;20129;-77
2022/08/25 12:20:55;;;;;;;1.50;1.20;;;36.30;37.00;;;;;;4963126;28;20038;-78
2022/08/25 12:24:04;;;;;;;3.75;1.08;;;36.30;38.00;;;;;;4963703;28;20053;-78
2022/08/25 12:26:36;;;;;;;1.15;1.00;;;36.50;38.40;;;;;;4988682;28;20049;-76
2022/08/25 12:29:27;;;;;;;2.08;1.30;;;36.70;38.10;;;;;;4997383;28;20038;-76
2022/08/25 12:31:56;;;;;;;1.08;0.98;;;36.70;37.00;;;;;;4965236;28;20038;-77
2022/08/25 12:34:43;;;;;;;1.20;1.10;;;36.50;36.40;;;;;;4963662;28;20121;-76
2022/08/25 12:37:16;;;;;;;1.77;1.10;;;36.40;36.40;;;;;;4968661;28;20462;-77
2022/08/25 12:40:01;;;;;;;1.25;1.10;;;36.10;37.00;;;;;;4970357;28;20154;-76
2022/08/25 12:42:37;;;;;;;2.05;1.17;;;35.90;36.90;;;;;;4965543;28;20082;-77
2022/08/25 12:45:36;;;;;;;3.03;1.10;;;35.60;36.70;;;;;;4963099;28;20031;-78
2022/08/25 12:48:27;;;;;;;1.42;1.00;;;35.30;38.00;;;;;;4966797;28;20505;-78
2022/08/25 12:51:20;;;;;;;1.17;1.00;;;35.20;39.60;;;;;;4966228;28;20403;-78
2022/08/25 12:54:34;;;;;;;1.33;1.10;;;35.20;39.30;;;;;;4974851;28;20125;-79
2022/08/25 12:57:34;;;;;;;1.42;1.00;;;35.40;40.10;;;;;;4969796;28;20057;-77
2022/08/25 13:00:54;;;;;;;1.30;1.20;;;35.50;37.90;;;;;;4964846;28;20059;-79
2022/08/25 13:04:08;;;;;;;1.50;1.27;;;35.50;39.30;;;;;;4912937;28;20056;-79
2022/08/25 13:07:02;;;;;;;1.23;1.00;;;35.70;39.60;;;;;;4970615;28;20139;-79
2022/08/25 13:10:00;;;;;;;0.95;0.95;;;35.50;37.30;;;;;;4976296;28;20137;-78
2022/08/25 13:13:00;;;;;;;1.25;1.00;;;35.20;38.10;;;;;;4973873;28;20069;-79
2022/08/25 13:15:56;;;;;;;0.98;0.90;;;35.20;38.80;;;;;;4966533;28;20507;-78
2022/08/25 13:18:48;;;;;;;1.38;1.00;;;35.40;38.20;;;;;;4973014;28;20388;-78
2022/08/25 13:21:41;;;;;;;1.77;1.20;;;35.70;38.50;;;;;;4971785;28;20391;-79
2022/08/25 13:24:30;;;;;;;2.20;1.38;;;36.10;37.60;;;;;;4983824;28;20452;-78
2022/08/25 13:27:00;;;;;;;1.15;1.00;;;36.10;37.90;;;;;;4974545;28;20133;-77
2022/08/25 13:29:49;;;;;;;1.10;0.90;;;35.90;38.50;;;;;;4965239;28;20056;-78
2022/08/25 13:32:38;;;;;;;1.55;1.20;;;35.80;38.30;;;;;;4976908;28;20104;-78
2022/08/25 13:35:36;;;;;;;3.28;1.10;;;35.80;38.60;;;;;;4979823;28;20038;-78
2022/08/25 13:38:28;;;;;;;1.40;1.17;;;35.90;38.80;;;;;;4938722;28;20038;-79
2022/08/25 13:41:10;;;;;;;1.17;1.00;;;36.20;38.90;;;;;;4967626;28;20070;-78
2022/08/25 13:43:50;;;;;;;1.20;1.10;;;36.50;37.60;;;;;;4942573;28;20056;-78
2022/08/25 13:46:26;;;;;;;2.55;1.10;;;36.70;38.00;;;;;;4977952;28;20034;-79
2022/08/25 13:49:08;;;;;;;1.23;1.10;;;36.50;37.50;;;;;;4963244;28;20046;-79
2022/08/25 13:51:41;;;;;;;2.03;1.00;;;36.20;38.90;;;;;;4964233;28;20046;-80
2022/08/25 13:54:20;;;;;;;;;;;36.00;39.20;;;;;;4978014;28;20042;-78
2022/08/25 13:56:49;;;;;;;1.52;1.13;;;35.90;37.90;;;;;;4964341;28;19918;-79
2022/08/25 13:59:35;;;;;;;1.23;1.13;;;35.80;39.70;;;;;;4963512;28;20471;-79
2022/08/25 14:02:04;;;;;;;1.20;1.10;;;35.80;39.00;;;;;;4967559;28;20098;-79
2022/08/25 14:04:31;;;;;;;1.25;1.15;;;35.80;39.70;;;;;;4975259;28;20065;-80
2022/08/25 14:07:21;;;;;;;2.00;1.50;;;35.90;40.20;;;;;;4970763;28;20042;-78
2022/08/25 14:09:56;;;;;;;1.38;1.20;;;35.90;39.10;;;;;;4968613;28;20073;-78
2022/08/25 14:12:39;;;;;;;1.40;1.08;;;35.70;38.40;;;;;;4958237;28;20133;-77
2022/08/25 14:15:16;;;;;;;1.25;1.15;;;35.40;39.30;;;;;;4958759;28;20096;-78
2022/08/25 14:18:31;;;;;;;1.48;1.38;;;35.30;39.90;;;;;;4960039;28;20142;-78
2022/08/25 14:21:10;;;;;;;3.00;1.35;;;35.30;39.50;;;;;;4935464;28;20082;-78
2022/08/25 14:23:44;;;;;;;1.27;1.10;;;35.10;40.10;;;;;;4961664;28;20038;-78
2022/08/25 14:26:16;;;;;;;1.50;1.30;;;35.00;40.00;;;;;;4960688;28;20088;-78
2022/08/25 14:28:55;;;;;;;1.40;1.30;;;34.80;40.30;;;;;;4961377;28;20098;-78
2022/08/25 14:31:42;;;;;;;3.15;1.30;;;34.60;40.70;;;;;;4961297;28;20038;-77
2022/08/25 14:34:38;;;;;;;2.22;1.50;;;34.40;41.30;;;;;;4961685;28;20050;-78
2022/08/25 14:37:20;;;;;;;1.90;1.52;;;34.10;42.20;;;;;;4954357;28;20130;-78
2022/08/25 14:39:49;;;;;;;1.88;1.73;;;33.90;41.20;;;;;;4962819;28;20046;-78
2022/08/25 14:42:15;;;;;;;1.85;1.50;;;33.50;40.80;;;;;;4962903;28;20038;-78
2022/08/25 14:44:46;;;;;;;1.40;1.30;;;33.20;41.10;;;;;;4962898;28;20057;-78
2022/08/25 14:47:21;;;;;;;2.83;1.60;;;32.90;41.60;;;;;;4961616;28;20042;-77
2022/08/25 14:49:58;;;;;;;1.50;1.40;;;32.60;42.60;;;;;;4961544;28;20034;-77
2022/08/25 14:52:30;;;;;;;2.55;1.25;;;32.30;42.80;;;;;;4950977;28;20049;-77
2022/08/25 14:55:05;;;;;;;1.70;1.60;;;32.20;43.30;;;;;;4970288;28;20521;-77
2022/08/25 14:57:44;;;;;;;1.50;1.35;;;32.00;43.30;;;;;;4961631;28;20064;-77
2022/08/25 15:00:25;;;;;;;1.80;1.48;;;31.90;44.00;;;;;;4960726;28;20074;-77
2022/08/25 15:02:59;;;;;;;2.35;1.42;;;31.70;44.00;;;;;;4975993;28;20042;-77
2022/08/25 15:05:31;;;;;;;2.28;1.90;;;31.50;44.00;;;;;;4959213;28;20042;-77
2022/08/25 15:10:49;;;;;;;1.83;1.52;;;31.30;45.00;;;;;;4985128;28;20254;-77
2022/08/25 15:13:16;;;;;;;1.50;1.40;;;31.10;45.40;;;;;;4972157;28;20105;-80
2022/08/25 15:15:43;;;;;;;3.53;1.60;;;31.00;45.20;;;;;;4978407;28;20042;-76
2022/08/25 15:18:10;;;;;;;2.30;1.60;;;31.00;45.20;;;;;;4970392;28;20034;-77
2022/08/25 15:20:39;;;;;;;1.98;1.50;;;30.90;45.70;;;;;;4978313;28;20109;-77
2022/08/25 15:23:07;;;;;;;2.28;1.70;;;30.80;45.00;;;;;;4964376;28;20042;-77
2022/08/25 15:25:39;;;;;;;1.85;1.65;;;30.70;45.40;;;;;;4966965;28;20037;-77
2022/08/25 15:28:10;;;;;;;2.00;1.85;;;30.70;46.30;;;;;;4966139;28;20050;-77
2022/08/25 15:30:45;;;;;;;1.98;1.65;;;30.60;46.30;;;;;;4967785;28;20045;-76
2022/08/25 15:33:14;;;;;;;2.10;1.67;;;30.50;46.70;;;;;;4965690;28;20049;-76
2022/08/25 15:35:40;;;;;;;2.20;1.52;;;30.40;45.90;;;;;;4962689;28;20529;-77
2022/08/25 15:38:06;;;;;;;2.33;1.55;;;30.50;45.90;;;;;;4966328;28;20142;-76
2022/08/25 15:40:33;;;;;;;2.45;1.55;;;30.40;45.90;;;;;;5001297;28;20041;-78
2022/08/25 15:43:05;;;;;;;2.80;1.60;;;30.40;46.40;;;;;;4980991;28;20037;-79
2022/08/25 15:45:57;;;;;;;1.85;1.42;;;30.30;46.60;;;;;;4977864;28;20047;-79
2022/08/25 15:48:58;;;;;;;1.80;1.45;;;30.20;46.80;;;;;;4960944;28;20569;-78
2022/08/25 15:51:32;;;;;;;1.95;1.52;;;30.20;47.60;;;;;;4974994;28;20046;-78